sensor_id;sensor_type;location;lat;lon;timestamp;pressure;altitude;pressure_sealevel;temperature;humidity
49611;BME280;35515;48.766;9.176;2024-01-15T00:01:06;97341.56;;;-1.05;76.37
49611;BME280;35515;48.766;9.176;2024-01-15T00:03:33;97334.06;;;-1.10;76.62
49611;BME280;35515;48.766;9.176;2024-01-15T00:06:01;97324.66;;;-0.96;76.28
49611;BME280;35515;48.766;9.176;2024-01-15T00:08:27;97326.81;;;-0.91;76.22
49611;BME280;35515;48.766;9.176;2024-01-15T00:10:54;97323.00;;;-0.89;75.81
49611;BME280;35515;48.766;9.176;2024-01-15T00:13:20;97316.53;;;-0.78;74.95
49611;BME280;35515;48.766;9.176;2024-01-15T00:15:47;97318.72;;;-0.73;75.17
49611;BME280;35515;48.766;9.176;2024-01-15T00:18:13;97318.06;;;-0.75;74.58
49611;BME280;35515;48.766;9.176;2024-01-15T00:20:40;97312.75;;;-0.59;73.52
49611;BME280;35515;48.766;9.176;2024-01-15T00:23:08;97308.34;;;-1.01;74.86
49611;BME280;35515;48.766;9.176;2024-01-15T00:25:34;97306.31;;;-1.07;75.92
49611;BME280;35515;48.766;9.176;2024-01-15T00:28:01;97304.19;;;-0.95;75.00
49611;BME280;35515;48.766;9.176;2024-01-15T00:30:27;97306.66;;;-1.10;76.14
49611;BME280;35515;48.766;9.176;2024-01-15T00:32:54;97307.53;;;-0.93;75.89
49611;BME280;35515;48.766;9.176;2024-01-15T00:35:20;97300.19;;;-1.08;76.52
49611;BME280;35515;48.766;9.176;2024-01-15T00:37:47;97308.69;;;-0.96;75.86
49611;BME280;35515;48.766;9.176;2024-01-15T00:40:15;97312.47;;;-1.07;76.66
49611;BME280;35515;48.766;9.176;2024-01-15T00:42:41;97297.22;;;-0.96;76.20
49611;BME280;35515;48.766;9.176;2024-01-15T00:45:09;97310.03;;;-0.92;76.48
49611;BME280;35515;48.766;9.176;2024-01-15T00:47:35;97306.03;;;-0.96;76.78
49611;BME280;35515;48.766;9.176;2024-01-15T00:50:02;97302.78;;;-0.65;75.84
49611;BME280;35515;48.766;9.176;2024-01-15T00:52:29;97306.72;;;-0.77;76.17
49611;BME280;35515;48.766;9.176;2024-01-15T00:54:55;97312.41;;;-0.72;75.68
49611;BME280;35515;48.766;9.176;2024-01-15T00:57:23;97318.06;;;-0.67;75.60
49611;BME280;35515;48.766;9.176;2024-01-15T00:59:50;97308.72;;;-0.79;76.12
49611;BME280;35515;48.766;9.176;2024-01-15T01:02:16;97316.50;;;-0.94;76.94
49611;BME280;35515;48.766;9.176;2024-01-15T01:04:43;97306.53;;;-0.84;77.07
49611;BME280;35515;48.766;9.176;2024-01-15T01:07:09;97310.41;;;-0.78;76.91
49611;BME280;35515;48.766;9.176;2024-01-15T01:09:35;97309.72;;;-0.89;77.25
49611;BME280;35515;48.766;9.176;2024-01-15T01:12:01;97306.72;;;-0.77;76.81
49611;BME280;35515;48.766;9.176;2024-01-15T01:14:29;97291.16;;;-0.64;76.29
49611;BME280;35515;48.766;9.176;2024-01-15T01:16:56;97303.66;;;-0.48;75.73
49611;BME280;35515;48.766;9.176;2024-01-15T01:19:22;97299.44;;;-0.59;76.10
49611;BME280;35515;48.766;9.176;2024-01-15T01:21:50;97299.88;;;-0.88;77.44
49611;BME280;35515;48.766;9.176;2024-01-15T01:24:17;97289.78;;;-0.85;78.05
49611;BME280;35515;48.766;9.176;2024-01-15T01:26:43;97290.81;;;-0.53;76.43
49611;BME280;35515;48.766;9.176;2024-01-15T01:29:11;97293.66;;;-0.62;77.08
49611;BME280;35515;48.766;9.176;2024-01-15T01:31:43;97293.50;;;-0.53;77.06
49611;BME280;35515;48.766;9.176;2024-01-15T01:34:10;97292.16;;;-0.65;77.88
49611;BME280;35515;48.766;9.176;2024-01-15T01:36:37;97298.16;;;-0.38;76.52
49611;BME280;35515;48.766;9.176;2024-01-15T01:39:04;97293.84;;;-0.31;76.10
49611;BME280;35515;48.766;9.176;2024-01-15T01:41:30;97307.78;;;-0.54;76.80
49611;BME280;35515;48.766;9.176;2024-01-15T01:43:57;97300.78;;;-0.71;78.03
49611;BME280;35515;48.766;9.176;2024-01-15T01:46:24;97297.13;;;-0.45;77.55
49611;BME280;35515;48.766;9.176;2024-01-15T01:48:54;97298.13;;;-0.63;77.82
49611;BME280;35515;48.766;9.176;2024-01-15T01:51:22;97295.28;;;-0.61;78.26
49611;BME280;35515;48.766;9.176;2024-01-15T01:53:50;97295.34;;;-0.45;78.18
49611;BME280;35515;48.766;9.176;2024-01-15T01:56:17;97296.13;;;-0.61;77.88
49611;BME280;35515;48.766;9.176;2024-01-15T01:58:44;97302.44;;;-0.78;79.19
49611;BME280;35515;48.766;9.176;2024-01-15T02:01:12;97287.19;;;-0.43;77.85
49611;BME280;35515;48.766;9.176;2024-01-15T02:03:39;97294.47;;;-0.45;77.78
49611;BME280;35515;48.766;9.176;2024-01-15T02:06:08;97292.44;;;-0.76;79.30
49611;BME280;35515;48.766;9.176;2024-01-15T02:08:34;97300.44;;;-0.68;79.33
49611;BME280;35515;48.766;9.176;2024-01-15T02:11:01;97301.47;;;-0.36;78.23
49611;BME280;35515;48.766;9.176;2024-01-15T02:13:28;97301.47;;;-0.44;77.71
49611;BME280;35515;48.766;9.176;2024-01-15T02:15:54;97300.13;;;-0.48;77.90
49611;BME280;35515;48.766;9.176;2024-01-15T02:18:21;97297.34;;;-0.30;77.67
49611;BME280;35515;48.766;9.176;2024-01-15T02:20:48;97291.50;;;-0.51;78.18
49611;BME280;35515;48.766;9.176;2024-01-15T02:23:16;97279.03;;;-0.50;79.04
49611;BME280;35515;48.766;9.176;2024-01-15T02:25:43;97281.69;;;-0.34;77.37
49611;BME280;35515;48.766;9.176;2024-01-15T02:28:12;97286.19;;;-0.34;77.56
49611;BME280;35515;48.766;9.176;2024-01-15T02:30:40;97282.19;;;-0.55;78.15
49611;BME280;35515;48.766;9.176;2024-01-15T02:33:07;97283.50;;;-0.59;78.62
49611;BME280;35515;48.766;9.176;2024-01-15T02:35:34;97278.19;;;-0.42;77.70
49611;BME280;35515;48.766;9.176;2024-01-15T02:38:02;97284.84;;;-0.55;78.28
49611;BME280;35515;48.766;9.176;2024-01-15T02:40:31;97284.19;;;-0.57;78.53
49611;BME280;35515;48.766;9.176;2024-01-15T02:42:58;97278.19;;;-0.51;78.06
49611;BME280;35515;48.766;9.176;2024-01-15T02:45:24;97279.03;;;-0.58;78.41
49611;BME280;35515;48.766;9.176;2024-01-15T02:47:51;97276.84;;;-0.63;79.34
49611;BME280;35515;48.766;9.176;2024-01-15T02:50:17;97270.53;;;-0.62;79.23
49611;BME280;35515;48.766;9.176;2024-01-15T02:52:44;97261.22;;;-0.58;78.41
49611;BME280;35515;48.766;9.176;2024-01-15T02:55:11;97268.56;;;-0.43;78.22
49611;BME280;35515;48.766;9.176;2024-01-15T02:57:39;97270.34;;;-0.60;78.93
49611;BME280;35515;48.766;9.176;2024-01-15T03:00:06;97268.19;;;-0.73;79.11
49611;BME280;35515;48.766;9.176;2024-01-15T03:02:35;97273.53;;;-0.57;78.81
49611;BME280;35515;48.766;9.176;2024-01-15T03:05:02;97254.56;;;-0.62;78.60
49611;BME280;35515;48.766;9.176;2024-01-15T03:07:30;97259.19;;;-0.80;79.86
49611;BME280;35515;48.766;9.176;2024-01-15T03:09:56;97256.72;;;-0.65;79.33
49611;BME280;35515;48.766;9.176;2024-01-15T03:12:23;97263.88;;;-0.82;79.87
49611;BME280;35515;48.766;9.176;2024-01-15T03:14:51;97254.56;;;-0.70;79.98
49611;BME280;35515;48.766;9.176;2024-01-15T03:17:17;97262.53;;;-0.78;80.03
49611;BME280;35515;48.766;9.176;2024-01-15T03:19:43;97254.06;;;-0.74;80.02
49611;BME280;35515;48.766;9.176;2024-01-15T03:22:10;97254.56;;;-0.78;80.17
49611;BME280;35515;48.766;9.176;2024-01-15T03:24:37;97257.47;;;-1.06;81.58
49611;BME280;35515;48.766;9.176;2024-01-15T03:27:03;97250.69;;;-0.92;81.08
49611;BME280;35515;48.766;9.176;2024-01-15T03:29:30;97257.13;;;-1.11;82.39
49611;BME280;35515;48.766;9.176;2024-01-15T03:31:58;97259.09;;;-1.13;82.35
49611;BME280;35515;48.766;9.176;2024-01-15T03:34:24;97241.63;;;-1.24;83.11
49611;BME280;35515;48.766;9.176;2024-01-15T03:36:51;97243.91;;;-0.87;81.51
49611;BME280;35515;48.766;9.176;2024-01-15T03:39:17;97249.50;;;-1.06;82.79
49611;BME280;35515;48.766;9.176;2024-01-15T03:41:44;97236.88;;;-1.04;82.88
49611;BME280;35515;48.766;9.176;2024-01-15T03:44:11;97231.59;;;-0.88;82.21
49611;BME280;35515;48.766;9.176;2024-01-15T03:46:37;97232.47;;;-0.71;80.80
49611;BME280;35515;48.766;9.176;2024-01-15T03:49:05;97231.44;;;-0.78;81.00
49611;BME280;35515;48.766;9.176;2024-01-15T03:51:32;97231.97;;;-0.66;80.83
49611;BME280;35515;48.766;9.176;2024-01-15T03:53:58;97233.63;;;-0.65;80.65
49611;BME280;35515;48.766;9.176;2024-01-15T03:56:25;97232.13;;;-0.43;79.25
49611;BME280;35515;48.766;9.176;2024-01-15T03:58:51;97223.97;;;-0.49;79.63
49611;BME280;35515;48.766;9.176;2024-01-15T04:01:19;97228.31;;;-0.57;79.89
49611;BME280;35515;48.766;9.176;2024-01-15T04:03:45;97230.97;;;-0.48;79.96
49611;BME280;35515;48.766;9.176;2024-01-15T04:06:13;97223.97;;;-0.49;80.09
49611;BME280;35515;48.766;9.176;2024-01-15T04:08:39;97227.31;;;-0.39;79.74
49611;BME280;35515;48.766;9.176;2024-01-15T04:11:06;97232.28;;;-0.44;79.80
49611;BME280;35515;48.766;9.176;2024-01-15T04:13:32;97224.97;;;-0.59;80.21
49611;BME280;35515;48.766;9.176;2024-01-15T04:16:00;97212.69;;;-0.60;80.46
49611;BME280;35515;48.766;9.176;2024-01-15T04:18:26;97215.00;;;-0.40;80.23
49611;BME280;35515;48.766;9.176;2024-01-15T04:20:53;97207.47;;;-0.20;79.31
49611;BME280;35515;48.766;9.176;2024-01-15T04:23:21;97198.59;;;0.21;76.78
49611;BME280;35515;48.766;9.176;2024-01-15T04:25:47;97204.97;;;-0.05;77.72
49611;BME280;35515;48.766;9.176;2024-01-15T04:28:14;97204.19;;;-0.22;78.17
49611;BME280;35515;48.766;9.176;2024-01-15T04:30:40;97202.34;;;-0.30;78.72
49611;BME280;35515;48.766;9.176;2024-01-15T04:33:07;97196.69;;;-0.27;79.23
49611;BME280;35515;48.766;9.176;2024-01-15T04:35:34;97192.47;;;0.04;77.32
49611;BME280;35515;48.766;9.176;2024-01-15T04:38:00;97206.25;;;0.15;76.90
49611;BME280;35515;48.766;9.176;2024-01-15T04:40:28;97203.50;;;-0.08;77.54
49611;BME280;35515;48.766;9.176;2024-01-15T04:42:54;97195.66;;;-0.18;78.79
49611;BME280;35515;48.766;9.176;2024-01-15T04:45:21;97197.00;;;-0.13;78.52
49611;BME280;35515;48.766;9.176;2024-01-15T04:47:53;97197.13;;;0.10;77.79
49611;BME280;35515;48.766;9.176;2024-01-15T04:50:20;97206.97;;;-0.07;78.33
49611;BME280;35515;48.766;9.176;2024-01-15T04:52:46;97212.88;;;0.28;76.30
49611;BME280;35515;48.766;9.176;2024-01-15T04:55:13;97209.59;;;0.09;77.13
49611;BME280;35515;48.766;9.176;2024-01-15T04:57:41;97207.75;;;0.18;76.79
49611;BME280;35515;48.766;9.176;2024-01-15T05:00:08;97212.63;;;-0.02;77.74
49611;BME280;35515;48.766;9.176;2024-01-15T05:02:34;97206.31;;;-0.01;78.07
49611;BME280;35515;48.766;9.176;2024-01-15T05:05:01;97202.28;;;0.03;77.99
49611;BME280;35515;48.766;9.176;2024-01-15T05:07:27;97197.47;;;0.07;78.71
49611;BME280;35515;48.766;9.176;2024-01-15T05:09:54;97194.25;;;0.20;77.66
49611;BME280;35515;48.766;9.176;2024-01-15T05:12:21;97190.41;;;0.22;77.64
49611;BME280;35515;48.766;9.176;2024-01-15T05:14:49;97182.06;;;0.25;78.11
49611;BME280;35515;48.766;9.176;2024-01-15T05:17:15;97190.78;;;0.19;78.57
49611;BME280;35515;48.766;9.176;2024-01-15T05:19:42;97185.31;;;0.04;78.80
49611;BME280;35515;48.766;9.176;2024-01-15T05:22:08;97185.00;;;-0.18;80.50
49611;BME280;35515;48.766;9.176;2024-01-15T05:24:35;97180.84;;;-0.04;80.21
49611;BME280;35515;48.766;9.176;2024-01-15T05:27:01;97176.63;;;0.10;78.98
49611;BME280;35515;48.766;9.176;2024-01-15T05:29:28;97169.31;;;0.12;78.68
49611;BME280;35515;48.766;9.176;2024-01-15T05:31:56;97176.91;;;0.24;77.93
49611;BME280;35515;48.766;9.176;2024-01-15T05:34:22;97182.00;;;0.02;79.46
49611;BME280;35515;48.766;9.176;2024-01-15T05:36:49;97184.31;;;0.05;79.29
49611;BME280;35515;48.766;9.176;2024-01-15T05:39:15;97180.59;;;0.23;77.99
49611;BME280;35515;48.766;9.176;2024-01-15T05:41:41;97182.31;;;0.07;79.20
49611;BME280;35515;48.766;9.176;2024-01-15T05:44:08;97187.41;;;0.25;78.48
49611;BME280;35515;48.766;9.176;2024-01-15T05:46:35;97166.47;;;0.14;79.01
49611;BME280;35515;48.766;9.176;2024-01-15T05:49:03;97165.69;;;-0.03;79.54
49611;BME280;35515;48.766;9.176;2024-01-15T05:51:29;97165.03;;;-0.13;80.17
49611;BME280;35515;48.766;9.176;2024-01-15T05:53:56;97173.75;;;0.28;78.08
49611;BME280;35515;48.766;9.176;2024-01-15T05:56:22;97176.63;;;0.10;78.98
49611;BME280;35515;48.766;9.176;2024-01-15T05:58:50;97170.44;;;0.18;78.86
49611;BME280;35515;48.766;9.176;2024-01-15T06:01:17;97175.97;;;0.16;78.39
49611;BME280;35515;48.766;9.176;2024-01-15T06:03:43;97171.81;;;0.14;78.15
49611;BME280;35515;48.766;9.176;2024-01-15T06:06:10;97161.44;;;0.27;77.45
49611;BME280;35515;48.766;9.176;2024-01-15T06:08:37;97164.28;;;0.26;77.41
49611;BME280;35515;48.766;9.176;2024-01-15T06:11:04;97169.06;;;0.39;77.08
49611;BME280;35515;48.766;9.176;2024-01-15T06:13:30;97175.47;;;0.13;78.03
49611;BME280;35515;48.766;9.176;2024-01-15T06:15:57;97181.06;;;0.26;77.73
49611;BME280;35515;48.766;9.176;2024-01-15T06:18:23;97173.56;;;0.30;77.13
49611;BME280;35515;48.766;9.176;2024-01-15T06:20:50;97176.88;;;0.32;76.37
49611;BME280;35515;48.766;9.176;2024-01-15T06:23:17;97179.97;;;0.12;77.96
49611;BME280;35515;48.766;9.176;2024-01-15T06:25:44;97172.00;;;-0.04;78.67
49611;BME280;35515;48.766;9.176;2024-01-15T06:28:10;97171.84;;;0.06;78.83
49611;BME280;35515;48.766;9.176;2024-01-15T06:30:37;97168.59;;;0.19;77.90
49611;BME280;35515;48.766;9.176;2024-01-15T06:33:04;97172.31;;;0.09;77.93
49611;BME280;35515;48.766;9.176;2024-01-15T06:35:31;97165.16;;;0.10;78.39
49611;BME280;35515;48.766;9.176;2024-01-15T06:37:59;97171.97;;;0.12;78.48
49611;BME280;35515;48.766;9.176;2024-01-15T06:40:27;97161.34;;;0.04;78.79
49611;BME280;35515;48.766;9.176;2024-01-15T06:42:54;97158.41;;;0.30;78.38
49611;BME280;35515;48.766;9.176;2024-01-15T06:45:20;97145.28;;;0.29;77.47
49611;BME280;35515;48.766;9.176;2024-01-15T06:47:48;97146.63;;;0.25;77.76
49611;BME280;35515;48.766;9.176;2024-01-15T06:50:15;97144.69;;;0.50;76.74
49611;BME280;35515;48.766;9.176;2024-01-15T06:52:41;97133.41;;;0.40;77.43
49611;BME280;35515;48.766;9.176;2024-01-15T06:55:08;97130.63;;;0.25;77.61
49611;BME280;35515;48.766;9.176;2024-01-15T06:57:36;97136.28;;;0.30;77.44
49611;BME280;35515;48.766;9.176;2024-01-15T07:00:03;97129.47;;;0.27;76.64
49611;BME280;35515;48.766;9.176;2024-01-15T07:02:33;97124.31;;;0.26;77.21
49611;BME280;35515;48.766;9.176;2024-01-15T07:04:59;97133.56;;;0.38;76.07
49611;BME280;35515;48.766;9.176;2024-01-15T07:07:26;97130.38;;;0.11;76.95
49611;BME280;35515;48.766;9.176;2024-01-15T07:09:55;97136.88;;;0.09;77.88
49611;BME280;35515;48.766;9.176;2024-01-15T07:12:21;97134.28;;;0.24;76.95
49611;BME280;35515;48.766;9.176;2024-01-15T07:14:49;97135.34;;;0.14;77.18
49611;BME280;35515;48.766;9.176;2024-01-15T07:17:16;97133.34;;;0.16;76.51
49611;BME280;35515;48.766;9.176;2024-01-15T07:19:42;97143.75;;;0.35;75.93
49611;BME280;35515;48.766;9.176;2024-01-15T07:22:09;97145.63;;;0.26;76.21
49611;BME280;35515;48.766;9.176;2024-01-15T07:24:35;97143.66;;;0.20;76.75
49611;BME280;35515;48.766;9.176;2024-01-15T07:27:02;97153.22;;;0.37;75.32
49611;BME280;35515;48.766;9.176;2024-01-15T07:29:30;97149.06;;;0.35;75.29
49611;BME280;35515;48.766;9.176;2024-01-15T07:31:59;97151.59;;;0.36;75.44
49611;BME280;35515;48.766;9.176;2024-01-15T07:34:26;97143.84;;;0.49;74.50
49611;BME280;35515;48.766;9.176;2024-01-15T07:36:52;97145.22;;;0.37;74.83
49611;BME280;35515;48.766;9.176;2024-01-15T07:39:19;97144.06;;;0.40;75.91
49611;BME280;35515;48.766;9.176;2024-01-15T07:41:45;97148.66;;;0.23;75.85
49611;BME280;35515;48.766;9.176;2024-01-15T07:44:12;97145.66;;;0.49;74.29
49611;BME280;35515;48.766;9.176;2024-01-15T07:46:40;97153.34;;;0.44;74.13
49611;BME280;35515;48.766;9.176;2024-01-15T07:49:08;97147.94;;;0.29;74.23
49611;BME280;35515;48.766;9.176;2024-01-15T07:51:35;97150.91;;;0.34;74.26
49611;BME280;35515;48.766;9.176;2024-01-15T07:54:02;97155.75;;;0.39;73.54
49611;BME280;35515;48.766;9.176;2024-01-15T07:56:28;97155.69;;;0.47;73.43
49611;BME280;35515;48.766;9.176;2024-01-15T07:58:56;97159.91;;;0.33;73.08
49611;BME280;35515;48.766;9.176;2024-01-15T08:01:22;97157.28;;;0.25;74.84
49611;BME280;35515;48.766;9.176;2024-01-15T08:03:49;97147.78;;;0.22;74.00
49611;BME280;35515;48.766;9.176;2024-01-15T08:06:17;97153.53;;;0.42;73.24
49611;BME280;35515;48.766;9.176;2024-01-15T08:08:43;97151.91;;;0.33;73.90
49611;BME280;35515;48.766;9.176;2024-01-15T08:11:10;97156.88;;;0.44;73.13
49611;BME280;35515;48.766;9.176;2024-01-15T08:13:37;97153.84;;;0.47;72.42
49611;BME280;35515;48.766;9.176;2024-01-15T08:16:04;97158.31;;;0.55;72.39
49611;BME280;35515;48.766;9.176;2024-01-15T08:18:30;97158.19;;;0.48;72.25
49611;BME280;35515;48.766;9.176;2024-01-15T08:20:57;97163.28;;;0.58;72.35
49611;BME280;35515;48.766;9.176;2024-01-15T08:23:25;97164.19;;;0.42;72.06
49611;BME280;35515;48.766;9.176;2024-01-15T08:25:53;97162.84;;;0.46;72.65
49611;BME280;35515;48.766;9.176;2024-01-15T08:28:19;97167.75;;;0.66;71.01
49611;BME280;35515;48.766;9.176;2024-01-15T08:30:46;97166.50;;;0.54;71.71
49611;BME280;35515;48.766;9.176;2024-01-15T08:33:12;97167.25;;;0.62;70.97
49611;BME280;35515;48.766;9.176;2024-01-15T08:35:39;97166.09;;;0.65;70.99
49611;BME280;35515;48.766;9.176;2024-01-15T08:38:05;97165.19;;;0.49;71.27
49611;BME280;35515;48.766;9.176;2024-01-15T08:40:33;97157.47;;;0.55;71.74
49611;BME280;35515;48.766;9.176;2024-01-15T08:43:00;97154.91;;;0.70;70.13
49611;BME280;35515;48.766;9.176;2024-01-15T08:45:27;97156.59;;;0.62;70.57
49611;BME280;35515;48.766;9.176;2024-01-15T08:47:53;97162.38;;;0.74;70.28
49611;BME280;35515;48.766;9.176;2024-01-15T08:50:20;97166.13;;;0.57;70.45
49611;BME280;35515;48.766;9.176;2024-01-15T08:52:46;97161.63;;;0.57;71.80
49611;BME280;35515;48.766;9.176;2024-01-15T08:55:13;97162.59;;;0.64;70.58
49611;BME280;35515;48.766;9.176;2024-01-15T08:57:41;97161.78;;;0.56;71.76
49611;BME280;35515;48.766;9.176;2024-01-15T09:00:09;97179.16;;;0.52;71.38
49611;BME280;35515;48.766;9.176;2024-01-15T09:02:36;97166.16;;;0.48;71.78
49611;BME280;35515;48.766;9.176;2024-01-15T09:05:03;97168.56;;;0.66;70.39
49611;BME280;35515;48.766;9.176;2024-01-15T09:07:30;97162.97;;;0.53;70.50
49611;BME280;35515;48.766;9.176;2024-01-15T09:09:57;97174.13;;;0.57;70.28
49611;BME280;35515;48.766;9.176;2024-01-15T09:12:24;97165.03;;;0.74;68.93
49611;BME280;35515;48.766;9.176;2024-01-15T09:14:52;97158.44;;;0.62;69.36
49611;BME280;35515;48.766;9.176;2024-01-15T09:17:19;97160.69;;;0.73;69.14
49611;BME280;35515;48.766;9.176;2024-01-15T09:19:47;97144.00;;;0.79;69.12
49611;BME280;35515;48.766;9.176;2024-01-15T09:22:14;97143.06;;;0.72;69.13
49611;BME280;35515;48.766;9.176;2024-01-15T09:24:43;97146.13;;;0.61;69.96
49611;BME280;35515;48.766;9.176;2024-01-15T09:27:10;97130.72;;;0.71;69.28
49611;BME280;35515;48.766;9.176;2024-01-15T09:29:36;97136.72;;;0.73;69.12
49611;BME280;35515;48.766;9.176;2024-01-15T09:32:06;97129.31;;;0.83;68.86
49611;BME280;35515;48.766;9.176;2024-01-15T09:34:33;97131.69;;;0.78;70.41
49611;BME280;35515;48.766;9.176;2024-01-15T09:37:00;97129.84;;;0.79;69.43
49611;BME280;35515;48.766;9.176;2024-01-15T09:39:28;97137.00;;;0.78;69.71
49611;BME280;35515;48.766;9.176;2024-01-15T09:41:54;97133.66;;;0.85;69.13
49611;BME280;35515;48.766;9.176;2024-01-15T09:44:21;97129.06;;;0.93;68.51
49611;BME280;35515;48.766;9.176;2024-01-15T09:46:47;97138.53;;;1.04;67.88
49611;BME280;35515;48.766;9.176;2024-01-15T09:49:17;97133.41;;;0.94;67.92
49611;BME280;35515;48.766;9.176;2024-01-15T09:51:44;97138.09;;;0.92;68.94
49611;BME280;35515;48.766;9.176;2024-01-15T09:56:36;97136.56;;;0.98;68.39
49611;BME280;35515;48.766;9.176;2024-01-15T09:59:03;97125.63;;;1.08;68.15
49611;BME280;35515;48.766;9.176;2024-01-15T10:01:31;97134.28;;;1.33;67.06
49611;BME280;35515;48.766;9.176;2024-01-15T10:03:58;97130.63;;;1.11;68.31
49611;BME280;35515;48.766;9.176;2024-01-15T10:06:26;97123.22;;;0.98;68.74
49611;BME280;35515;48.766;9.176;2024-01-15T10:08:54;97119.47;;;1.07;68.13
49611;BME280;35515;48.766;9.176;2024-01-15T10:11:23;97110.22;;;1.18;67.83
49611;BME280;35515;48.766;9.176;2024-01-15T10:13:50;97105.38;;;0.98;68.06
49611;BME280;35515;48.766;9.176;2024-01-15T10:16:18;97101.59;;;0.93;68.93
49611;BME280;35515;48.766;9.176;2024-01-15T10:18:44;97100.84;;;1.22;68.05
49611;BME280;35515;48.766;9.176;2024-01-15T10:21:13;97104.41;;;1.14;68.01
49611;BME280;35515;48.766;9.176;2024-01-15T10:23:41;97092.88;;;1.37;67.03
49611;BME280;35515;48.766;9.176;2024-01-15T10:26:08;97099.81;;;1.08;67.84
49611;BME280;35515;48.766;9.176;2024-01-15T10:28:35;97106.22;;;0.99;68.51
49611;BME280;35515;48.766;9.176;2024-01-15T10:31:02;97100.75;;;1.15;68.19
49611;BME280;35515;48.766;9.176;2024-01-15T10:33:28;97097.56;;;1.20;67.41
49611;BME280;35515;48.766;9.176;2024-01-15T10:35:55;97077.94;;;1.28;67.14
49611;BME280;35515;48.766;9.176;2024-01-15T10:38:23;97068.22;;;1.35;67.00
49611;BME280;35515;48.766;9.176;2024-01-15T10:40:52;97073.97;;;1.24;67.87
49611;BME280;35515;48.766;9.176;2024-01-15T10:43:19;97081.47;;;1.28;67.50
49611;BME280;35515;48.766;9.176;2024-01-15T10:45:46;97069.78;;;1.29;67.54
49611;BME280;35515;48.766;9.176;2024-01-15T10:48:13;97062.31;;;1.25;68.08
49611;BME280;35515;48.766;9.176;2024-01-15T10:50:40;97069.28;;;1.11;68.95
49611;BME280;35515;48.766;9.176;2024-01-15T10:53:09;97058.63;;;1.26;68.72
49611;BME280;35515;48.766;9.176;2024-01-15T10:55:38;97048.53;;;1.36;67.77
49611;BME280;35515;48.766;9.176;2024-01-15T10:58:06;97057.09;;;1.46;67.48
49611;BME280;35515;48.766;9.176;2024-01-15T11:00:34;97055.34;;;1.39;68.17
49611;BME280;35515;48.766;9.176;2024-01-15T11:03:01;97059.75;;;1.46;67.56
49611;BME280;35515;48.766;9.176;2024-01-15T11:05:33;97073.38;;;1.52;67.82
49611;BME280;35515;48.766;9.176;2024-01-15T11:08:01;97060.59;;;1.47;68.22
49611;BME280;35515;48.766;9.176;2024-01-15T11:10:41;97062.63;;;1.45;68.33
49611;BME280;35515;48.766;9.176;2024-01-15T11:13:10;97061.63;;;1.61;68.27
49611;BME280;35515;48.766;9.176;2024-01-15T11:15:54;97055.38;;;1.54;68.65
49611;BME280;35515;48.766;9.176;2024-01-15T11:18:21;97054.31;;;1.40;69.61
49611;BME280;35515;48.766;9.176;2024-01-15T11:23:45;97053.97;;;1.58;71.67
49611;BME280;35515;48.766;9.176;2024-01-15T11:26:27;97040.44;;;1.44;73.13
49611;BME280;35515;48.766;9.176;2024-01-15T11:28:55;97030.69;;;1.52;74.04
49611;BME280;35515;48.766;9.176;2024-01-15T11:31:26;97033.81;;;1.40;73.73
49611;BME280;35515;48.766;9.176;2024-01-15T11:33:53;97034.91;;;1.61;72.79
49611;BME280;35515;48.766;9.176;2024-01-15T11:36:20;97024.72;;;1.49;72.67
49611;BME280;35515;48.766;9.176;2024-01-15T11:38:47;97034.25;;;1.44;74.07
49611;BME280;35515;48.766;9.176;2024-01-15T11:41:13;97031.97;;;1.56;73.08
49611;BME280;35515;48.766;9.176;2024-01-15T11:43:41;97024.16;;;1.54;73.89
49611;BME280;35515;48.766;9.176;2024-01-15T11:46:11;97031.44;;;1.60;74.49
49611;BME280;35515;48.766;9.176;2024-01-15T11:48:43;97031.16;;;1.40;76.18
49611;BME280;35515;48.766;9.176;2024-01-15T11:51:11;97034.81;;;1.39;77.05
49611;BME280;35515;48.766;9.176;2024-01-15T11:53:43;97041.06;;;1.46;77.14
49611;BME280;35515;48.766;9.176;2024-01-15T11:56:14;97042.09;;;1.45;78.25
49611;BME280;35515;48.766;9.176;2024-01-15T11:58:42;97037.31;;;1.56;76.89
49611;BME280;35515;48.766;9.176;2024-01-15T12:01:10;97043.31;;;1.58;76.30
49611;BME280;35515;48.766;9.176;2024-01-15T12:03:37;97039.97;;;1.41;77.01
49611;BME280;35515;48.766;9.176;2024-01-15T12:06:05;97037.03;;;1.50;77.47
49611;BME280;35515;48.766;9.176;2024-01-15T12:08:32;97032.06;;;1.32;78.09
49611;BME280;35515;48.766;9.176;2024-01-15T12:10:59;97049.72;;;1.33;78.87
49611;BME280;35515;48.766;9.176;2024-01-15T12:13:27;97034.53;;;1.34;78.15
49611;BME280;35515;48.766;9.176;2024-01-15T12:15:54;97048.06;;;1.47;78.07
49611;BME280;35515;48.766;9.176;2024-01-15T12:18:22;97044.84;;;1.37;80.82
49611;BME280;35515;48.766;9.176;2024-01-15T12:20:49;97048.97;;;1.25;82.50
49611;BME280;35515;48.766;9.176;2024-01-15T12:23:15;97053.59;;;1.31;83.57
49611;BME280;35515;48.766;9.176;2024-01-15T12:25:43;97057.06;;;1.31;86.28
49611;BME280;35515;48.766;9.176;2024-01-15T12:28:09;97061.31;;;1.26;88.79
49611;BME280;35515;48.766;9.176;2024-01-15T12:30:36;97054.88;;;1.20;89.41
49611;BME280;35515;48.766;9.176;2024-01-15T12:33:04;97057.38;;;0.98;92.09
49611;BME280;35515;48.766;9.176;2024-01-15T12:35:33;97055.09;;;1.10;92.00
49611;BME280;35515;48.766;9.176;2024-01-15T12:38:00;97043.78;;;1.08;94.90
49611;BME280;35515;48.766;9.176;2024-01-15T12:40:28;97051.81;;;1.08;95.42
49611;BME280;35515;48.766;9.176;2024-01-15T12:42:55;97061.78;;;0.91;98.11
49611;BME280;35515;48.766;9.176;2024-01-15T12:45:21;97056.91;;;0.95;99.29
49611;BME280;35515;48.766;9.176;2024-01-15T12:47:48;97063.31;;;0.86;99.80
49611;BME280;35515;48.766;9.176;2024-01-15T12:50:16;97060.00;;;0.83;100.00
49611;BME280;35515;48.766;9.176;2024-01-15T12:52:44;97064.03;;;0.79;100.00
49611;BME280;35515;48.766;9.176;2024-01-15T12:55:10;97066.75;;;0.71;100.00
49611;BME280;35515;48.766;9.176;2024-01-15T12:57:37;97062.06;;;0.73;100.00
49611;BME280;35515;48.766;9.176;2024-01-15T13:00:05;97059.56;;;0.72;100.00
49611;BME280;35515;48.766;9.176;2024-01-15T13:02:36;97074.69;;;0.79;100.00
49611;BME280;35515;48.766;9.176;2024-01-15T13:05:03;97066.75;;;0.71;100.00
49611;BME280;35515;48.766;9.176;2024-01-15T13:07:31;97059.13;;;0.68;100.00
49611;BME280;35515;48.766;9.176;2024-01-15T13:09:59;97076.34;;;0.80;100.00
49611;BME280;35515;48.766;9.176;2024-01-15T13:12:28;97078.84;;;0.82;100.00